Liberal Mid-America Regional Airport Liberal US
ICAO: KLBL
IATA: LBL
Category: Medium
Scheduled Services: Yes

Elevation: 2885 ft
TransAlt. 18000 ft.

Airport Communications:
AWOS 3:118.375
KANSAS CITY CNTR:134
WICHITA RDO:122.4
CTAF/UNICOM:122.8

KLBL Zoom In..

If you have problems with the map follow the link
https://www.worldairports.se/pages/airport.php?
ICAO=KLBL

Runways:

(A) RW 04 length 5721 ft width 150 ft
---- / hdg 35

(B) RW 17 length 7105 ft width 100 ft
---- / hdg 170

(C) RW 22 length 5721 ft width 150 ft
---- / hdg 215

(D) RW 35 length 7105 ft width 100 ft
ILS 111.30 / hdg 350

Location; KLBL
Day. 22 / Time. 16.56 Zulu
* Altimeter: 29.99
* Temperature: 02° c. 35.6°f.
* Wind from: 170° Speed 15 kn.
Dewpoint: 01° c.
Visibility: 10 Statute Miles.
Clouds: Overcast 500 ft.

KLBL 221656Z AUTO 17015KT 10SM OVC005 02/01 A2999 RMK AO2 SLP167 T00220011 FZRANO


Wind From 170°
Speed 15 kn.

 
 
jpsmedia.com for Web Design worldairports.se 2019   terms of use